sensor_id;sensor_type;location;lat;lon;timestamp;temperature;humidity
61374;DHT22;47242;48.158;-1.586;2022-11-21T05:31:10;9.80;85.60
61374;DHT22;47242;48.158;-1.586;2022-11-21T05:33:36;9.80;85.70
61374;DHT22;47242;48.158;-1.586;2022-11-21T05:36:01;9.90;85.70
61374;DHT22;47242;48.158;-1.586;2022-11-21T05:38:27;9.90;85.70
61374;DHT22;47242;48.158;-1.586;2022-11-21T05:40:53;9.90;85.90
61374;DHT22;47242;48.158;-1.586;2022-11-21T05:43:18;10.00;86.00
61374;DHT22;47242;48.158;-1.586;2022-11-21T05:46:03;9.90;86.10
61374;DHT22;47242;48.158;-1.586;2022-11-21T05:48:28;10.00;86.40
61374;DHT22;47242;48.158;-1.586;2022-11-21T05:50:54;9.90;86.50
61374;DHT22;47242;48.158;-1.586;2022-11-21T05:53:20;10.00;86.70
61374;DHT22;47242;48.158;-1.586;2022-11-21T05:55:46;10.10;86.80
61374;DHT22;47242;48.158;-1.586;2022-11-21T05:58:12;10.20;86.90
61374;DHT22;47242;48.158;-1.586;2022-11-21T06:00:38;10.20;86.80
61374;DHT22;47242;48.158;-1.586;2022-11-21T06:03:05;10.20;87.00
61374;DHT22;47242;48.158;-1.586;2022-11-21T06:05:49;10.20;87.20
61374;DHT22;47242;48.158;-1.586;2022-11-21T06:08:15;10.30;87.20
61374;DHT22;47242;48.158;-1.586;2022-11-21T06:10:40;10.30;87.70
61374;DHT22;47242;48.158;-1.586;2022-11-21T06:13:08;10.30;87.60
61374;DHT22;47242;48.158;-1.586;2022-11-21T06:16:03;10.30;87.60
61374;DHT22;47242;48.158;-1.586;2022-11-21T06:18:32;10.40;87.70
61374;DHT22;47242;48.158;-1.586;2022-11-21T06:21:13;10.40;87.70
61374;DHT22;47242;48.158;-1.586;2022-11-21T06:23:39;10.50;87.70
61374;DHT22;47242;48.158;-1.586;2022-11-21T06:26:06;10.50;87.60
61374;DHT22;47242;48.158;-1.586;2022-11-21T06:28:34;10.50;87.60
61374;DHT22;47242;48.158;-1.586;2022-11-21T06:31:10;10.50;87.60
61374;DHT22;47242;48.158;-1.586;2022-11-21T06:33:37;10.50;87.40
61374;DHT22;47242;48.158;-1.586;2022-11-21T06:36:05;10.50;87.30
61374;DHT22;47242;48.158;-1.586;2022-11-21T06:38:31;10.50;87.30
61374;DHT22;47242;48.158;-1.586;2022-11-21T06:40:57;10.50;87.20
61374;DHT22;47242;48.158;-1.586;2022-11-21T06:43:23;10.60;87.10
61374;DHT22;47242;48.158;-1.586;2022-11-21T06:45:48;10.50;86.80
61374;DHT22;47242;48.158;-1.586;2022-11-21T06:48:14;10.50;86.90
61374;DHT22;47242;48.158;-1.586;2022-11-21T06:50:40;10.50;86.60
61374;DHT22;47242;48.158;-1.586;2022-11-21T06:53:05;10.50;86.70
61374;DHT22;47242;48.158;-1.586;2022-11-21T06:55:31;10.50;86.50
61374;DHT22;47242;48.158;-1.586;2022-11-21T06:57:59;10.50;86.50
61374;DHT22;47242;48.158;-1.586;2022-11-21T07:00:26;10.40;86.30
61374;DHT22;47242;48.158;-1.586;2022-11-21T07:02:53;10.50;86.40
61374;DHT22;47242;48.158;-1.586;2022-11-21T07:05:18;10.50;86.20
61374;DHT22;47242;48.158;-1.586;2022-11-21T07:07:44;10.40;86.20
61374;DHT22;47242;48.158;-1.586;2022-11-21T07:10:10;10.40;86.10
61374;DHT22;47242;48.158;-1.586;2022-11-21T07:12:35;10.40;86.10
61374;DHT22;47242;48.158;-1.586;2022-11-21T07:15:20;10.50;86.10
61374;DHT22;47242;48.158;-1.586;2022-11-21T07:17:45;10.40;86.00
61374;DHT22;47242;48.158;-1.586;2022-11-21T07:20:11;10.50;86.20
61374;DHT22;47242;48.158;-1.586;2022-11-21T07:22:38;10.50;85.90
61374;DHT22;47242;48.158;-1.586;2022-11-21T07:25:03;10.40;86.10
61374;DHT22;47242;48.158;-1.586;2022-11-21T07:27:29;10.50;86.20
61374;DHT22;47242;48.158;-1.586;2022-11-21T07:29:55;10.50;86.10
61374;DHT22;47242;48.158;-1.586;2022-11-21T07:32:26;10.50;86.00
61374;DHT22;47242;48.158;-1.586;2022-11-21T07:34:52;10.40;85.60
61374;DHT22;47242;48.158;-1.586;2022-11-21T07:37:18;10.40;85.70
61374;DHT22;47242;48.158;-1.586;2022-11-21T07:39:44;10.40;86.00
61374;DHT22;47242;48.158;-1.586;2022-11-21T07:42:10;10.40;85.70
61374;DHT22;47242;48.158;-1.586;2022-11-21T07:44:35;10.50;85.80
61374;DHT22;47242;48.158;-1.586;2022-11-21T07:47:01;10.40;85.50
61374;DHT22;47242;48.158;-1.586;2022-11-21T07:49:27;10.40;85.70
61374;DHT22;47242;48.158;-1.586;2022-11-21T07:51:52;10.40;85.80
61374;DHT22;47242;48.158;-1.586;2022-11-21T07:54:18;10.50;85.50
61374;DHT22;47242;48.158;-1.586;2022-11-21T07:56:44;10.50;85.50
61374;DHT22;47242;48.158;-1.586;2022-11-21T07:59:10;10.50;85.40
61374;DHT22;47242;48.158;-1.586;2022-11-21T08:01:35;10.50;85.10
61374;DHT22;47242;48.158;-1.586;2022-11-21T08:04:01;10.50;85.40
61374;DHT22;47242;48.158;-1.586;2022-11-21T08:06:27;10.50;85.40
61374;DHT22;47242;48.158;-1.586;2022-11-21T08:08:53;10.50;85.00
61374;DHT22;47242;48.158;-1.586;2022-11-21T08:11:18;10.50;85.10
61374;DHT22;47242;48.158;-1.586;2022-11-21T08:13:44;10.50;84.90
61374;DHT22;47242;48.158;-1.586;2022-11-21T08:16:10;10.50;85.10
61374;DHT22;47242;48.158;-1.586;2022-11-21T08:18:36;10.50;84.70
61374;DHT22;47242;48.158;-1.586;2022-11-21T08:21:02;10.50;84.40
61374;DHT22;47242;48.158;-1.586;2022-11-21T08:23:28;10.50;84.70
61374;DHT22;47242;48.158;-1.586;2022-11-21T08:25:54;10.50;84.70
61374;DHT22;47242;48.158;-1.586;2022-11-21T08:28:20;10.50;84.90
61374;DHT22;47242;48.158;-1.586;2022-11-21T08:30:45;10.50;85.10
61374;DHT22;47242;48.158;-1.586;2022-11-21T08:33:11;10.50;85.70
61374;DHT22;47242;48.158;-1.586;2022-11-21T08:35:37;10.40;85.90
61374;DHT22;47242;48.158;-1.586;2022-11-21T08:38:03;10.30;86.00
61374;DHT22;47242;48.158;-1.586;2022-11-21T08:40:30;10.30;86.20
61374;DHT22;47242;48.158;-1.586;2022-11-21T08:43:04;10.30;86.70
61374;DHT22;47242;48.158;-1.586;2022-11-21T08:45:31;10.30;86.80
61374;DHT22;47242;48.158;-1.586;2022-11-21T08:47:57;10.30;86.90
61374;DHT22;47242;48.158;-1.586;2022-11-21T08:50:23;10.30;86.90
61374;DHT22;47242;48.158;-1.586;2022-11-21T08:52:49;10.20;86.60
61374;DHT22;47242;48.158;-1.586;2022-11-21T08:55:15;10.30;87.10
61374;DHT22;47242;48.158;-1.586;2022-11-21T08:57:41;10.30;87.10
61374;DHT22;47242;48.158;-1.586;2022-11-21T09:00:09;10.20;87.20
61374;DHT22;47242;48.158;-1.586;2022-11-21T09:02:37;10.20;87.50
61374;DHT22;47242;48.158;-1.586;2022-11-21T09:05:03;10.30;87.40
61374;DHT22;47242;48.158;-1.586;2022-11-21T09:07:29;10.30;87.30
61374;DHT22;47242;48.158;-1.586;2022-11-21T09:09:54;10.30;87.80
61374;DHT22;47242;48.158;-1.586;2022-11-21T09:12:20;10.30;87.70
61374;DHT22;47242;48.158;-1.586;2022-11-21T09:14:45;10.40;87.60
61374;DHT22;47242;48.158;-1.586;2022-11-21T09:17:30;10.30;87.90
61374;DHT22;47242;48.158;-1.586;2022-11-21T09:20:15;10.40;87.80
61374;DHT22;47242;48.158;-1.586;2022-11-21T09:22:40;10.40;87.90
61374;DHT22;47242;48.158;-1.586;2022-11-21T09:25:06;10.40;87.90
61374;DHT22;47242;48.158;-1.586;2022-11-21T09:27:32;10.50;87.90
61374;DHT22;47242;48.158;-1.586;2022-11-21T09:29:58;10.50;87.80
61374;DHT22;47242;48.158;-1.586;2022-11-21T09:32:24;10.50;87.70
61374;DHT22;47242;48.158;-1.586;2022-11-21T09:34:49;10.40;88.00
61374;DHT22;47242;48.158;-1.586;2022-11-21T09:37:15;10.50;88.10
61374;DHT22;47242;48.158;-1.586;2022-11-21T09:39:41;10.40;88.00
61374;DHT22;47242;48.158;-1.586;2022-11-21T09:45:06;10.50;88.10
61374;DHT22;47242;48.158;-1.586;2022-11-21T09:47:36;10.50;88.30
61374;DHT22;47242;48.158;-1.586;2022-11-21T09:52:40;10.60;88.20
61374;DHT22;47242;48.158;-1.586;2022-11-21T09:55:43;10.60;88.40
61374;DHT22;47242;48.158;-1.586;2022-11-21T09:58:26;10.60;88.20
61374;DHT22;47242;48.158;-1.586;2022-11-21T10:00:54;10.60;88.30
61374;DHT22;47242;48.158;-1.586;2022-11-21T10:03:23;10.60;88.60
61374;DHT22;47242;48.158;-1.586;2022-11-21T10:05:57;10.60;88.60
61374;DHT22;47242;48.158;-1.586;2022-11-21T10:16:43;10.80;88.60
61374;DHT22;47242;48.158;-1.586;2022-11-21T10:19:21;10.80;88.50
61374;DHT22;47242;48.158;-1.586;2022-11-21T10:27:31;10.90;88.60
61374;DHT22;47242;48.158;-1.586;2022-11-21T10:30:05;10.80;88.70
61374;DHT22;47242;48.158;-1.586;2022-11-21T10:32:41;10.90;88.70
61374;DHT22;47242;48.158;-1.586;2022-11-21T10:36:21;11.00;88.70
61374;DHT22;47242;48.158;-1.586;2022-11-21T10:46:31;11.20;89.10
61374;DHT22;47242;48.158;-1.586;2022-11-21T10:49:01;11.20;89.20
61374;DHT22;47242;48.158;-1.586;2022-11-21T10:51:49;11.20;89.20
61374;DHT22;47242;48.158;-1.586;2022-11-21T10:54:15;11.30;89.20
61374;DHT22;47242;48.158;-1.586;2022-11-21T10:57:12;11.40;89.20
61374;DHT22;47242;48.158;-1.586;2022-11-21T10:59:39;11.50;89.20
61374;DHT22;47242;48.158;-1.586;2022-11-21T11:04:37;11.70;89.00
61374;DHT22;47242;48.158;-1.586;2022-11-21T11:07:25;11.70;88.90
61374;DHT22;47242;48.158;-1.586;2022-11-21T11:09:51;11.80;88.80
61374;DHT22;47242;48.158;-1.586;2022-11-21T11:15:16;11.90;88.60
61374;DHT22;47242;48.158;-1.586;2022-11-21T11:17:42;11.90;88.60
61374;DHT22;47242;48.158;-1.586;2022-11-21T11:20:41;12.00;88.70
61374;DHT22;47242;48.158;-1.586;2022-11-21T11:25:51;11.90;88.40
61374;DHT22;47242;48.158;-1.586;2022-11-21T11:28:17;12.00;88.40
61374;DHT22;47242;48.158;-1.586;2022-11-21T11:30:49;12.00;88.20
61374;DHT22;47242;48.158;-1.586;2022-11-21T11:33:37;12.20;88.20
61374;DHT22;47242;48.158;-1.586;2022-11-21T11:36:20;12.30;87.80
61374;DHT22;47242;48.158;-1.586;2022-11-21T11:38:57;12.40;87.50
61374;DHT22;47242;48.158;-1.586;2022-11-21T11:45:01;12.40;87.10
61374;DHT22;47242;48.158;-1.586;2022-11-21T11:48:11;12.50;86.50
61374;DHT22;47242;48.158;-1.586;2022-11-21T11:50:54;12.50;86.10
61374;DHT22;47242;48.158;-1.586;2022-11-21T11:53:25;12.50;85.70
61374;DHT22;47242;48.158;-1.586;2022-11-21T11:56:12;12.50;85.40
61374;DHT22;47242;48.158;-1.586;2022-11-21T12:03:53;12.50;84.70
61374;DHT22;47242;48.158;-1.586;2022-11-21T12:06:24;12.50;84.00
61374;DHT22;47242;48.158;-1.586;2022-11-21T12:08:56;12.40;83.40
61374;DHT22;47242;48.158;-1.586;2022-11-21T12:11:57;12.50;83.70
61374;DHT22;47242;48.158;-1.586;2022-11-21T12:17:37;12.60;83.10
61374;DHT22;47242;48.158;-1.586;2022-11-21T12:20:28;12.60;82.80
61374;DHT22;47242;48.158;-1.586;2022-11-21T12:22:55;12.70;82.40
61374;DHT22;47242;48.158;-1.586;2022-11-21T12:25:29;12.70;81.60
61374;DHT22;47242;48.158;-1.586;2022-11-21T12:27:57;12.80;81.40
61374;DHT22;47242;48.158;-1.586;2022-11-21T12:33:20;12.80;80.70
61374;DHT22;47242;48.158;-1.586;2022-11-21T12:36:13;12.80;79.80
61374;DHT22;47242;48.158;-1.586;2022-11-21T12:41:47;12.80;77.50
61374;DHT22;47242;48.158;-1.586;2022-11-21T12:59:30;12.60;75.90
61374;DHT22;47242;48.158;-1.586;2022-11-21T13:02:02;12.60;75.90
61374;DHT22;47242;48.158;-1.586;2022-11-21T13:04:35;12.70;75.50
61374;DHT22;47242;48.158;-1.586;2022-11-21T13:07:03;12.70;75.80
61374;DHT22;47242;48.158;-1.586;2022-11-21T13:09:35;12.70;74.40
61374;DHT22;47242;48.158;-1.586;2022-11-21T13:12:06;12.70;75.30
61374;DHT22;47242;48.158;-1.586;2022-11-21T13:20:12;12.80;75.50
61374;DHT22;47242;48.158;-1.586;2022-11-21T13:25:11;12.80;74.20
61374;DHT22;47242;48.158;-1.586;2022-11-21T13:27:40;12.80;74.20
61374;DHT22;47242;48.158;-1.586;2022-11-21T13:32:59;12.40;74.40
61374;DHT22;47242;48.158;-1.586;2022-11-21T13:38:06;12.30;74.90
61374;DHT22;47242;48.158;-1.586;2022-11-21T13:40:34;12.20;75.40
61374;DHT22;47242;48.158;-1.586;2022-11-21T13:45:46;12.20;76.40
61374;DHT22;47242;48.158;-1.586;2022-11-21T13:50:54;12.30;75.20
61374;DHT22;47242;48.158;-1.586;2022-11-21T13:59:19;12.50;74.50
61374;DHT22;47242;48.158;-1.586;2022-11-21T14:07:35;12.50;74.80
61374;DHT22;47242;48.158;-1.586;2022-11-21T14:12:47;12.60;73.60
61374;DHT22;47242;48.158;-1.586;2022-11-21T14:15:39;12.60;74.10
61374;DHT22;47242;48.158;-1.586;2022-11-21T14:18:22;12.60;74.60
61374;DHT22;47242;48.158;-1.586;2022-11-21T14:20:54;12.50;74.00
61374;DHT22;47242;48.158;-1.586;2022-11-21T14:23:31;12.50;73.50
61374;DHT22;47242;48.158;-1.586;2022-11-21T14:26:03;12.50;73.50
61374;DHT22;47242;48.158;-1.586;2022-11-21T14:28:32;12.50;72.50
61374;DHT22;47242;48.158;-1.586;2022-11-21T14:31:01;12.50;73.30
61374;DHT22;47242;48.158;-1.586;2022-11-21T14:33:31;12.40;73.00
61374;DHT22;47242;48.158;-1.586;2022-11-21T14:41:29;12.10;71.80
61374;DHT22;47242;48.158;-1.586;2022-11-21T14:46:31;12.10;71.80
61374;DHT22;47242;48.158;-1.586;2022-11-21T14:51:44;12.00;70.70
61374;DHT22;47242;48.158;-1.586;2022-11-21T14:54:21;12.00;70.80
61374;DHT22;47242;48.158;-1.586;2022-11-21T14:56:51;11.90;70.40
61374;DHT22;47242;48.158;-1.586;2022-11-21T14:59:24;11.90;70.10
61374;DHT22;47242;48.158;-1.586;2022-11-21T15:01:56;11.90;70.60
61374;DHT22;47242;48.158;-1.586;2022-11-21T15:04:34;11.80;69.60
61374;DHT22;47242;48.158;-1.586;2022-11-21T15:07:01;11.70;69.90
61374;DHT22;47242;48.158;-1.586;2022-11-21T15:09:27;11.80;69.10
61374;DHT22;47242;48.158;-1.586;2022-11-21T15:12:03;11.80;69.00
61374;DHT22;47242;48.158;-1.586;2022-11-21T15:14:52;11.60;68.00
61374;DHT22;47242;48.158;-1.586;2022-11-21T15:17:21;11.70;69.20
61374;DHT22;47242;48.158;-1.586;2022-11-21T15:20:03;11.70;68.70
61374;DHT22;47242;48.158;-1.586;2022-11-21T15:22:34;11.60;68.80
61374;DHT22;47242;48.158;-1.586;2022-11-21T15:27:40;11.30;70.60
61374;DHT22;47242;48.158;-1.586;2022-11-21T15:30:20;11.30;69.80
61374;DHT22;47242;48.158;-1.586;2022-11-21T15:33:12;11.20;69.40
61374;DHT22;47242;48.158;-1.586;2022-11-21T15:38:40;11.10;69.40
61374;DHT22;47242;48.158;-1.586;2022-11-21T15:46:18;11.00;68.90
61374;DHT22;47242;48.158;-1.586;2022-11-21T15:48:50;11.00;70.70
61374;DHT22;47242;48.158;-1.586;2022-11-21T15:51:18;11.00;71.00
61374;DHT22;47242;48.158;-1.586;2022-11-21T15:53:44;11.00;70.80
61374;DHT22;47242;48.158;-1.586;2022-11-21T15:56:14;10.90;71.10
61374;DHT22;47242;48.158;-1.586;2022-11-21T15:58:41;10.90;71.60
61374;DHT22;47242;48.158;-1.586;2022-11-21T16:01:17;10.90;71.70
61374;DHT22;47242;48.158;-1.586;2022-11-21T16:03:44;10.90;71.70
61374;DHT22;47242;48.158;-1.586;2022-11-21T16:06:10;10.80;72.40
61374;DHT22;47242;48.158;-1.586;2022-11-21T16:08:37;10.80;72.10
61374;DHT22;47242;48.158;-1.586;2022-11-21T16:11:03;10.80;72.40
61374;DHT22;47242;48.158;-1.586;2022-11-21T16:13:29;10.70;72.80
61374;DHT22;47242;48.158;-1.586;2022-11-21T16:15:55;10.80;72.40
61374;DHT22;47242;48.158;-1.586;2022-11-21T16:18:20;10.80;73.00
61374;DHT22;47242;48.158;-1.586;2022-11-21T16:20:46;10.70;72.80
61374;DHT22;47242;48.158;-1.586;2022-11-21T16:23:11;10.60;73.00
61374;DHT22;47242;48.158;-1.586;2022-11-21T16:25:48;10.60;73.60
61374;DHT22;47242;48.158;-1.586;2022-11-21T16:28:14;10.60;74.00
61374;DHT22;47242;48.158;-1.586;2022-11-21T16:30:39;10.50;73.70
61374;DHT22;47242;48.158;-1.586;2022-11-21T16:33:05;10.50;73.80
61374;DHT22;47242;48.158;-1.586;2022-11-21T16:35:31;10.50;73.40
61374;DHT22;47242;48.158;-1.586;2022-11-21T16:37:56;10.40;73.80
61374;DHT22;47242;48.158;-1.586;2022-11-21T16:40:22;10.40;73.50
61374;DHT22;47242;48.158;-1.586;2022-11-21T16:42:47;10.30;73.60
61374;DHT22;47242;48.158;-1.586;2022-11-21T16:45:13;10.30;73.20
61374;DHT22;47242;48.158;-1.586;2022-11-21T16:47:39;10.20;73.70
61374;DHT22;47242;48.158;-1.586;2022-11-21T16:50:05;10.20;73.30
61374;DHT22;47242;48.158;-1.586;2022-11-21T16:52:33;10.20;74.10
61374;DHT22;47242;48.158;-1.586;2022-11-21T16:55:00;10.10;73.50
61374;DHT22;47242;48.158;-1.586;2022-11-21T16:57:26;10.10;74.40
61374;DHT22;47242;48.158;-1.586;2022-11-21T16:59:52;10.00;74.50
61374;DHT22;47242;48.158;-1.586;2022-11-21T17:02:18;10.00;74.20
61374;DHT22;47242;48.158;-1.586;2022-11-21T17:04:50;9.90;74.30
61374;DHT22;47242;48.158;-1.586;2022-11-21T17:07:16;9.90;74.40
61374;DHT22;47242;48.158;-1.586;2022-11-21T17:09:42;9.90;74.10
61374;DHT22;47242;48.158;-1.586;2022-11-21T17:12:07;9.80;74.40
61374;DHT22;47242;48.158;-1.586;2022-11-21T17:14:33;9.80;74.10
61374;DHT22;47242;48.158;-1.586;2022-11-21T17:16:59;9.70;74.10
61374;DHT22;47242;48.158;-1.586;2022-11-21T17:19:24;9.80;74.60
61374;DHT22;47242;48.158;-1.586;2022-11-21T17:21:53;9.80;74.60
61374;DHT22;47242;48.158;-1.586;2022-11-21T17:24:19;9.80;74.50
61374;DHT22;47242;48.158;-1.586;2022-11-21T17:26:44;9.70;74.00
61374;DHT22;47242;48.158;-1.586;2022-11-21T17:29:10;9.70;74.10
61374;DHT22;47242;48.158;-1.586;2022-11-21T17:31:35;9.70;74.10
61374;DHT22;47242;48.158;-1.586;2022-11-21T17:34:01;9.70;73.40
61374;DHT22;47242;48.158;-1.586;2022-11-21T17:36:28;9.60;72.90
61374;DHT22;47242;48.158;-1.586;2022-11-21T17:38:57;9.50;73.90
61374;DHT22;47242;48.158;-1.586;2022-11-21T17:41:23;9.50;73.30
61374;DHT22;47242;48.158;-1.586;2022-11-21T17:43:53;9.30;73.40
61374;DHT22;47242;48.158;-1.586;2022-11-21T17:46:19;9.30;73.20
61374;DHT22;47242;48.158;-1.586;2022-11-21T17:48:46;9.30;73.70
61374;DHT22;47242;48.158;-1.586;2022-11-21T17:51:14;9.30;73.70
61374;DHT22;47242;48.158;-1.586;2022-11-21T17:53:42;9.30;73.60
61374;DHT22;47242;48.158;-1.586;2022-11-21T17:56:16;9.30;73.60
61374;DHT22;47242;48.158;-1.586;2022-11-21T17:58:42;9.20;74.10
61374;DHT22;47242;48.158;-1.586;2022-11-21T18:01:09;9.20;74.00
61374;DHT22;47242;48.158;-1.586;2022-11-21T18:03:39;9.20;74.10
61374;DHT22;47242;48.158;-1.586;2022-11-21T18:06:10;9.20;73.90
61374;DHT22;47242;48.158;-1.586;2022-11-21T18:08:38;9.20;73.50
61374;DHT22;47242;48.158;-1.586;2022-11-21T18:11:06;9.20;73.70
61374;DHT22;47242;48.158;-1.586;2022-11-21T18:13:32;9.20;73.50
61374;DHT22;47242;48.158;-1.586;2022-11-21T18:16:00;9.10;73.90
61374;DHT22;47242;48.158;-1.586;2022-11-21T18:18:26;9.10;73.80
61374;DHT22;47242;48.158;-1.586;2022-11-21T18:20:51;9.10;73.80
61374;DHT22;47242;48.158;-1.586;2022-11-21T18:23:17;9.10;73.70
61374;DHT22;47242;48.158;-1.586;2022-11-21T18:25:43;9.10;73.70
61374;DHT22;47242;48.158;-1.586;2022-11-21T18:28:08;9.10;73.40
61374;DHT22;47242;48.158;-1.586;2022-11-21T18:30:34;9.00;73.50
61374;DHT22;47242;48.158;-1.586;2022-11-21T18:33:02;8.80;73.70
61374;DHT22;47242;48.158;-1.586;2022-11-21T18:35:28;8.90;74.50
61374;DHT22;47242;48.158;-1.586;2022-11-21T18:37:54;8.80;74.20
61374;DHT22;47242;48.158;-1.586;2022-11-21T18:40:20;8.90;74.00
61374;DHT22;47242;48.158;-1.586;2022-11-21T18:42:46;8.90;74.20
61374;DHT22;47242;48.158;-1.586;2022-11-21T18:45:12;8.90;73.60
61374;DHT22;47242;48.158;-1.586;2022-11-21T18:47:37;8.80;73.40
61374;DHT22;47242;48.158;-1.586;2022-11-21T18:50:05;8.80;74.00
61374;DHT22;47242;48.158;-1.586;2022-11-21T18:52:31;8.80;73.70
61374;DHT22;47242;48.158;-1.586;2022-11-21T18:54:58;8.80;73.80
61374;DHT22;47242;48.158;-1.586;2022-11-21T18:57:24;8.70;74.00
61374;DHT22;47242;48.158;-1.586;2022-11-21T18:59:50;8.80;73.50
61374;DHT22;47242;48.158;-1.586;2022-11-21T19:02:15;8.70;73.30
61374;DHT22;47242;48.158;-1.586;2022-11-21T19:04:41;8.70;73.70
61374;DHT22;47242;48.158;-1.586;2022-11-21T19:07:06;8.70;73.80
61374;DHT22;47242;48.158;-1.586;2022-11-21T19:09:32;8.70;73.20
61374;DHT22;47242;48.158;-1.586;2022-11-21T19:11:58;8.70;74.00
61374;DHT22;47242;48.158;-1.586;2022-11-21T19:14:23;8.70;73.90
61374;DHT22;47242;48.158;-1.586;2022-11-21T19:16:49;8.60;73.50
61374;DHT22;47242;48.158;-1.586;2022-11-21T19:19:15;8.70;73.90
61374;DHT22;47242;48.158;-1.586;2022-11-21T19:21:42;8.70;73.50
61374;DHT22;47242;48.158;-1.586;2022-11-21T19:24:11;8.70;73.70
61374;DHT22;47242;48.158;-1.586;2022-11-21T19:26:38;8.70;73.50
61374;DHT22;47242;48.158;-1.586;2022-11-21T19:29:03;8.70;73.30
61374;DHT22;47242;48.158;-1.586;2022-11-21T19:31:29;8.70;73.20
61374;DHT22;47242;48.158;-1.586;2022-11-21T19:33:54;8.60;73.10
61374;DHT22;47242;48.158;-1.586;2022-11-21T19:36:22;8.60;73.50
61374;DHT22;47242;48.158;-1.586;2022-11-21T19:38:50;8.70;73.50
61374;DHT22;47242;48.158;-1.586;2022-11-21T19:41:21;8.60;73.10
61374;DHT22;47242;48.158;-1.586;2022-11-21T19:43:49;8.50;73.70
61374;DHT22;47242;48.158;-1.586;2022-11-21T19:46:23;8.60;73.60
61374;DHT22;47242;48.158;-1.586;2022-11-21T19:48:53;8.60;73.50
61374;DHT22;47242;48.158;-1.586;2022-11-21T19:51:20;8.60;73.10
61374;DHT22;47242;48.158;-1.586;2022-11-21T19:53:47;8.60;73.10
61374;DHT22;47242;48.158;-1.586;2022-11-21T19:56:18;8.60;73.40
61374;DHT22;47242;48.158;-1.586;2022-11-21T19:58:45;8.50;73.30
61374;DHT22;47242;48.158;-1.586;2022-11-21T20:01:13;8.60;73.50
61374;DHT22;47242;48.158;-1.586;2022-11-21T20:03:42;8.60;73.30
61374;DHT22;47242;48.158;-1.586;2022-11-21T20:06:26;8.60;73.40
61374;DHT22;47242;48.158;-1.586;2022-11-21T20:08:55;8.60;73.60
61374;DHT22;47242;48.158;-1.586;2022-11-21T20:11:22;8.60;73.60
61374;DHT22;47242;48.158;-1.586;2022-11-21T20:13:48;8.70;73.70
61374;DHT22;47242;48.158;-1.586;2022-11-21T20:18:48;8.70;73.60
61374;DHT22;47242;48.158;-1.586;2022-11-21T20:21:15;8.70;73.50
61374;DHT22;47242;48.158;-1.586;2022-11-21T20:23:41;8.80;73.50
61374;DHT22;47242;48.158;-1.586;2022-11-21T20:26:08;8.70;73.60
61374;DHT22;47242;48.158;-1.586;2022-11-21T20:28:35;8.70;73.60
61374;DHT22;47242;48.158;-1.586;2022-11-21T20:31:12;8.80;73.70
61374;DHT22;47242;48.158;-1.586;2022-11-21T20:33:40;8.70;73.60
61374;DHT22;47242;48.158;-1.586;2022-11-21T20:36:08;8.70;73.40
61374;DHT22;47242;48.158;-1.586;2022-11-21T20:38:35;8.70;73.50
61374;DHT22;47242;48.158;-1.586;2022-11-21T20:41:04;8.70;73.50
61374;DHT22;47242;48.158;-1.586;2022-11-21T20:43:47;8.70;73.80
61374;DHT22;47242;48.158;-1.586;2022-11-21T20:46:13;8.70;73.50
61374;DHT22;47242;48.158;-1.586;2022-11-21T20:48:39;8.70;73.80
61374;DHT22;47242;48.158;-1.586;2022-11-21T20:51:04;8.70;73.70
61374;DHT22;47242;48.158;-1.586;2022-11-21T20:53:31;8.70;73.70
61374;DHT22;47242;48.158;-1.586;2022-11-21T20:56:07;8.70;74.00
61374;DHT22;47242;48.158;-1.586;2022-11-21T20:58:35;8.70;74.20
61374;DHT22;47242;48.158;-1.586;2022-11-21T21:01:04;8.70;74.20
61374;DHT22;47242;48.158;-1.586;2022-11-21T21:03:32;8.80;74.20
61374;DHT22;47242;48.158;-1.586;2022-11-21T21:06:00;8.80;74.10
61374;DHT22;47242;48.158;-1.586;2022-11-21T21:08:26;8.80;74.30
61374;DHT22;47242;48.158;-1.586;2022-11-21T21:11:03;8.90;74.20
61374;DHT22;47242;48.158;-1.586;2022-11-21T21:13:29;8.90;74.40
61374;DHT22;47242;48.158;-1.586;2022-11-21T21:16:03;8.90;74.30
61374;DHT22;47242;48.158;-1.586;2022-11-21T21:18:35;9.00;74.40
61374;DHT22;47242;48.158;-1.586;2022-11-21T21:21:05;8.90;74.40
61374;DHT22;47242;48.158;-1.586;2022-11-21T21:23:34;8.90;74.10
61374;DHT22;47242;48.158;-1.586;2022-11-21T21:26:17;9.00;74.20
61374;DHT22;47242;48.158;-1.586;2022-11-21T21:28:44;9.00;74.10
61374;DHT22;47242;48.158;-1.586;2022-11-21T21:31:18;9.00;74.00
61374;DHT22;47242;48.158;-1.586;2022-11-21T21:33:44;9.00;74.60
61374;DHT22;47242;48.158;-1.586;2022-11-21T21:36:12;9.10;74.70
61374;DHT22;47242;48.158;-1.586;2022-11-21T21:38:39;9.00;75.10
61374;DHT22;47242;48.158;-1.586;2022-11-21T21:41:08;9.00;75.30
61374;DHT22;47242;48.158;-1.586;2022-11-21T21:43:44;9.00;75.40
61374;DHT22;47242;48.158;-1.586;2022-11-21T21:46:10;9.00;75.30
61374;DHT22;47242;48.158;-1.586;2022-11-21T21:48:37;8.90;75.50
61374;DHT22;47242;48.158;-1.586;2022-11-21T21:51:29;8.90;75.50
61374;DHT22;47242;48.158;-1.586;2022-11-21T21:53:56;8.90;75.40
61374;DHT22;47242;48.158;-1.586;2022-11-21T21:56:24;8.80;75.70
61374;DHT22;47242;48.158;-1.586;2022-11-21T21:58:51;8.80;75.80
61374;DHT22;47242;48.158;-1.586;2022-11-21T22:01:18;8.80;75.80
61374;DHT22;47242;48.158;-1.586;2022-11-21T22:03:45;8.80;75.90
61374;DHT22;47242;48.158;-1.586;2022-11-21T22:06:13;8.80;75.80
61374;DHT22;47242;48.158;-1.586;2022-11-21T22:08:40;8.70;76.10
61374;DHT22;47242;48.158;-1.586;2022-11-21T22:11:09;8.70;76.20
61374;DHT22;47242;48.158;-1.586;2022-11-21T22:13:36;8.60;76.40
61374;DHT22;47242;48.158;-1.586;2022-11-21T22:16:03;8.60;76.40
61374;DHT22;47242;48.158;-1.586;2022-11-21T22:18:30;8.60;76.60
61374;DHT22;47242;48.158;-1.586;2022-11-21T22:20:55;8.60;76.60
61374;DHT22;47242;48.158;-1.586;2022-11-21T22:23:39;8.60;76.50
61374;DHT22;47242;48.158;-1.586;2022-11-21T22:26:04;8.60;76.70
61374;DHT22;47242;48.158;-1.586;2022-11-21T22:28:30;8.60;76.80
